^^
Datos históricos de la estación: Murcia-Puente Tocinos
Diario Informe para Marzo 18, 2019 Unidades:  Ambas    Ingés   Métrico
Diario Semanal Mensual Anual
  Máxima: Mínima: Promedio:
Temperatura: 59.7 °F /  15.4 °C 41.2 °F /  5.1 °C 50.7 °F /  10.4 °C
Punto de rocio: 43.2 °F /  6.2 °C 33.6 °F /  0.9 °C 37.6 °F /  3.1 °C
Humedad: 79.5% 39.1% 62%
Velocidad viento: 5.4mph /  8.7km/h - 3mph /  4.8km/h
Racha viento: 10mph /  16.1km/h - -
Viento- - SSO
Presión: 30.1 in /  1019.1 hPa 30 in /  1015.4 hPa -
Precipitación: 0 in /  0.0 mm    
 
 
Tabla de datos para Marzo 18, 2019
Hora Temperatura Punto de rocio Presión Viento Velocidad viento Racha viento Humedad Intensidad lluvia(por hora) Nubes
00:04 49.3 °F /  9.6 °C 37.6 °F /  3.1 °C 30.1in /  1017.8hPa Sur 3.6mph /  5.8km/h 6mph /  9.7km/h 64.1% 0in /  0.0mm
00:09 48.9 °F /  9.4 °C 37.8 °F /  3.2 °C 30.1in /  1017.8hPa SSE 3.2mph /  5.2km/h 5.2mph /  8.4km/h 65% 0in /  0.0mm
00:14 48.7 °F /  9.3 °C 37.6 °F /  3.1 °C 30.1in /  1017.8hPa Sur 2.9mph /  4.7km/h 6.2mph /  10km/h 65% 0in /  0.0mm
00:19 48.7 °F /  9.3 °C 37.6 °F /  3.1 °C 30.1in /  1017.8hPa Sur 3.7mph /  5.9km/h 6.9mph /  11.1km/h 65% 0in /  0.0mm
00:24 48.9 °F /  9.4 °C 37.8 °F /  3.2 °C 30.1in /  1017.6hPa SSO 4.3mph /  6.9km/h 7mph /  11.3km/h 65% 0in /  0.0mm
00:29 48.9 °F /  9.4 °C 37.8 °F /  3.2 °C 30.1in /  1017.6hPa SSO 4.8mph /  7.8km/h 8.1mph /  13km/h 65% 0in /  0.0mm
00:34 48.9 °F /  9.4 °C 37.6 °F /  3.1 °C 30.1in /  1017.6hPa SSO 5.2mph /  8.4km/h 8.1mph /  13km/h 65% 0in /  0.0mm
00:39 48.7 °F /  9.3 °C 37.6 °F /  3.1 °C 30in /  1017.4hPa SSO 4.9mph /  7.9km/h 8.1mph /  13km/h 65% 0in /  0.0mm
00:44 48.7 °F /  9.3 °C 37.6 °F /  3.1 °C 30in /  1017.4hPa SSO 4.7mph /  7.6km/h 8mph /  12.9km/h 65% 0in /  0.0mm
00:49 48.7 °F /  9.3 °C 37.6 °F /  3.1 °C 30.1in /  1017.5hPa SSO 4.7mph /  7.6km/h 7.4mph /  11.9km/h 65% 0in /  0.0mm
00:54 48.7 °F /  9.3 °C 37.6 °F /  3.1 °C 30.1in /  1017.5hPa SO 4.7mph /  7.6km/h 8.1mph /  13km/h 65% 0in /  0.0mm
00:59 48.7 °F /  9.3 °C 37.6 °F /  3.1 °C 30.1in /  1017.5hPa SO 5.1mph /  8.2km/h 9.2mph /  14.8km/h 65% 0in /  0.0mm
01:04 48.7 °F /  9.3 °C 37.2 °F /  2.9 °C 30.1in /  1017.5hPa SO 5.4mph /  8.7km/h 9.2mph /  14.8km/h 64.3% 0in /  0.0mm
01:09 48.7 °F /  9.3 °C 37.2 °F /  2.9 °C 30in /  1017.3hPa SO 5.4mph /  8.7km/h 9mph /  14.5km/h 64% 0in /  0.0mm
01:14 48.7 °F /  9.3 °C 37 °F /  2.8 °C 30in /  1017.3hPa SO 5.4mph /  8.7km/h 7.4mph /  11.9km/h 64% 0in /  0.0mm
01:19 48.7 °F /  9.3 °C 37.2 °F /  2.9 °C 30in /  1017.3hPa OSO 4.8mph /  7.7km/h 7mph /  11.3km/h 64.3% 0in /  0.0mm
01:24 48.7 °F /  9.3 °C 37.4 °F /  3 °C 30in /  1017.2hPa OSO 4.3mph /  6.9km/h 6mph /  9.7km/h 65% 0in /  0.0mm
01:29 48.6 °F /  9.2 °C 37.2 °F /  2.9 °C 30in /  1017.2hPa OSO 3mph /  4.9km/h 4mph /  6.4km/h 65% 0in /  0.0mm
01:34 48.6 °F /  9.2 °C 37.2 °F /  2.9 °C 30in /  1017.3hPa OSO 2mph /  3.2km/h 2.9mph /  4.7km/h 65% 0in /  0.0mm
01:39 48.4 °F /  9.1 °C 37.2 °F /  2.9 °C 30in /  1017.3hPa OSO 1.7mph /  2.7km/h 3.5mph /  5.6km/h 65% 0in /  0.0mm
01:44 48.2 °F /  9 °C 37.2 °F /  2.9 °C 30in /  1017.3hPa OSO 1.4mph /  2.2km/h 3.5mph /  5.6km/h 65.5% 0in /  0.0mm
01:49 48 °F /  8.9 °C 37.2 °F /  2.9 °C 30in /  1017.3hPa OSO 1.6mph /  2.6km/h 3mph /  4.8km/h 66% 0in /  0.0mm
01:54 48 °F /  8.9 °C 37.2 °F /  2.9 °C 30in /  1017.1hPa OSO 1.8mph /  2.9km/h 4.6mph /  7.4km/h 66% 0in /  0.0mm
01:59 48 °F /  8.9 °C 37.2 °F /  2.9 °C 30in /  1017.1hPa SO 1.9mph /  3.1km/h 5.8mph /  9.3km/h 66% 0in /  0.0mm
02:04 48 °F /  8.9 °C 37.2 °F /  2.9 °C 30in /  1017.1hPa Sur 2mph /  3.2km/h 6mph /  9.7km/h 66% 0in /  0.0mm
02:09 48 °F /  8.9 °C 37.2 °F /  2.9 °C 30in /  1017.0hPa SSE 2.5mph /  4km/h 5mph /  8km/h 66% 0in /  0.0mm
02:14 48 °F /  8.9 °C 37.2 °F /  2.9 °C 30in /  1017.0hPa Sur 3.1mph /  5km/h 5.4mph /  8.7km/h 66% 0in /  0.0mm
02:19 48 °F /  8.9 °C 37.2 °F /  2.9 °C 30in /  1017.1hPa SSO 3.1mph /  5km/h 6mph /  9.7km/h 66% 0in /  0.0mm
02:24 47.8 °F /  8.8 °C 37 °F /  2.8 °C 30in /  1017.1hPa SO 3.1mph /  5km/h 6.4mph /  10.3km/h 66% 0in /  0.0mm
02:29 47.8 °F /  8.8 °C 37 °F /  2.8 °C 30in /  1017.1hPa SO 3.8mph /  6.1km/h 7mph /  11.3km/h 66% 0in /  0.0mm
02:34 48 °F /  8.9 °C 37.2 °F /  2.9 °C 30in /  1017.2hPa SO 4.3mph /  6.9km/h 7mph /  11.3km/h 66% 0in /  0.0mm
02:39 48 °F /  8.9 °C 37.2 °F /  2.9 °C 30in /  1017.2hPa SSO 4.2mph /  6.7km/h 6mph /  9.7km/h 66% 0in /  0.0mm
02:44 47.8 °F /  8.8 °C 37 °F /  2.8 °C 30in /  1017.2hPa SSO 4mph /  6.5km/h 5.8mph /  9.3km/h 66% 0in /  0.0mm
02:49 47.8 °F /  8.8 °C 37 °F /  2.8 °C 30in /  1017.2hPa SSO 3.8mph /  6.1km/h 6mph /  9.7km/h 66% 0in /  0.0mm
02:54 47.7 °F /  8.7 °C 36.9 °F /  2.7 °C 30in /  1017.2hPa SSO 3.6mph /  5.8km/h 6mph /  9.7km/h 66% 0in /  0.0mm
02:59 47.7 °F /  8.7 °C 36.9 °F /  2.7 °C 30in /  1017.2hPa SSO 4mph /  6.5km/h 6.2mph /  10km/h 66% 0in /  0.0mm
03:04 47.7 °F /  8.7 °C 36.9 °F /  2.7 °C 30in /  1017.2hPa SSO 4.3mph /  6.9km/h 6mph /  9.7km/h 66% 0in /  0.0mm
03:09 47.7 °F /  8.7 °C 37 °F /  2.8 °C 30in /  1017.2hPa SSO 4.3mph /  6.9km/h 6mph /  9.7km/h 66.3% 0in /  0.0mm
03:14 47.5 °F /  8.6 °C 37 °F /  2.8 °C 30in /  1017.2hPa SSO 4.3mph /  6.9km/h 6mph /  9.7km/h 67% 0in /  0.0mm
03:19 47.3 °F /  8.5 °C 36.9 °F /  2.7 °C 30in /  1017.3hPa SSO 4.2mph /  6.7km/h 7.6mph /  12.2km/h 67% 0in /  0.0mm
03:24 47.3 °F /  8.5 °C 36.9 °F /  2.7 °C 30in /  1017.3hPa SSO 4mph /  6.5km/h 8.1mph /  13km/h 67% 0in /  0.0mm
03:29 47.3 °F /  8.5 °C 36.9 °F /  2.7 °C 30in /  1017.3hPa Sur 4.4mph /  7.1km/h 8mph /  12.9km/h 67% 0in /  0.0mm
03:34 46.9 °F /  8.3 °C 36.9 °F /  2.7 °C 30in /  1017.3hPa Sur 4.7mph /  7.6km/h 6.2mph /  10km/h 67.8% 0in /  0.0mm
03:39 46.8 °F /  8.2 °C 36.9 °F /  2.7 °C 30in /  1017.3hPa Sur 4.5mph /  7.2km/h 6.2mph /  10km/h 68.4% 0in /  0.0mm
03:44 46.4 °F /  8 °C 36.9 °F /  2.7 °C 30in /  1017.3hPa Sur 4.3mph /  6.9km/h 6mph /  9.7km/h 69% 0in /  0.0mm
03:49 46.2 °F /  7.9 °C 36.9 °F /  2.7 °C 30in /  1017.4hPa SSO 4.2mph /  6.7km/h 6mph /  9.7km/h 69.7% 0in /  0.0mm
03:54 46 °F /  7.8 °C 36.9 °F /  2.7 °C 30in /  1017.4hPa Sur 4mph /  6.5km/h 6.2mph /  10km/h 70% 0in /  0.0mm
03:59 45.9 °F /  7.7 °C 36.7 °F /  2.6 °C 30in /  1017.4hPa Sur 4mph /  6.5km/h 6mph /  9.7km/h 70.3% 0in /  0.0mm
04:04 45.7 °F /  7.6 °C 36.9 °F /  2.7 °C 30in /  1017.4hPa SO 4mph /  6.5km/h 6mph /  9.7km/h 71% 0in /  0.0mm
04:09 45.7 °F /  7.6 °C 36.9 °F /  2.7 °C 30in /  1017.4hPa SSO 4mph /  6.5km/h 6mph /  9.7km/h 71% 0in /  0.0mm
04:14 45.5 °F /  7.5 °C 36.7 °F /  2.6 °C 30in /  1017.4hPa SSO 4mph /  6.5km/h 6mph /  9.7km/h 71.2% 0in /  0.0mm
04:19 45.3 °F /  7.4 °C 36.7 °F /  2.6 °C 30in /  1017.4hPa SSO 4mph /  6.5km/h 6mph /  9.7km/h 72% 0in /  0.0mm
04:24 45.1 °F /  7.3 °C 36.7 °F /  2.6 °C 30in /  1017.4hPa SO 4mph /  6.5km/h 5.9mph /  9.5km/h 72% 0in /  0.0mm
04:29 45.1 °F /  7.3 °C 36.7 °F /  2.6 °C 30in /  1017.4hPa SO 3.8mph /  6.1km/h 6mph /  9.7km/h 72% 0in /  0.0mm
04:34 45 °F /  7.2 °C 36.5 °F /  2.5 °C 30in /  1017.4hPa Sur 3.6mph /  5.8km/h 6mph /  9.7km/h 72% 0in /  0.0mm
04:39 45 °F /  7.2 °C 36.5 °F /  2.5 °C 30in /  1017.4hPa SSO 3.6mph /  5.8km/h 6mph /  9.7km/h 72% 0in /  0.0mm
04:44 44.8 °F /  7.1 °C 36.3 °F /  2.4 °C 30in /  1017.4hPa SO 3.6mph /  5.8km/h 6mph /  9.7km/h 72% 0in /  0.0mm
04:49 44.8 °F /  7.1 °C 36.3 °F /  2.4 °C 30in /  1017.4hPa SO 3.6mph /  5.8km/h 6mph /  9.7km/h 72% 0in /  0.0mm
04:54 44.8 °F /  7.1 °C 36.3 °F /  2.4 °C 30in /  1017.4hPa SO 3.6mph /  5.8km/h 6mph /  9.7km/h 72% 0in /  0.0mm
04:59 45 °F /  7.2 °C 36.3 °F /  2.4 °C 30in /  1017.4hPa OSO 3.3mph /  5.3km/h 5.2mph /  8.4km/h 72% 0in /  0.0mm
05:04 44.8 °F /  7.1 °C 36.3 °F /  2.4 °C 30in /  1017.4hPa OSO 3.1mph /  5km/h 5.2mph /  8.4km/h 72% 0in /  0.0mm
05:09 44.8 °F /  7.1 °C 36.1 °F /  2.3 °C 30in /  1017.4hPa Oeste 3.1mph /  5km/h 5mph /  8km/h 72% 0in /  0.0mm
05:14 44.4 °F /  6.9 °C 36 °F /  2.2 °C 30in /  1017.4hPa OSO 3.1mph /  5km/h 5.9mph /  9.5km/h 72% 0in /  0.0mm
05:19 44.4 °F /  6.9 °C 36 °F /  2.2 °C 30.1in /  1017.5hPa OSO 3.1mph /  5km/h 6.9mph /  11.1km/h 72% 0in /  0.0mm
05:24 44.4 °F /  6.9 °C 36.1 °F /  2.3 °C 30.1in /  1017.5hPa OSO 3.1mph /  5km/h 7mph /  11.3km/h 72.4% 0in /  0.0mm
05:29 44.4 °F /  6.9 °C 36 °F /  2.2 °C 30.1in /  1017.5hPa OSO 3mph /  4.8km/h 5.2mph /  8.4km/h 72.1% 0in /  0.0mm
05:34 44.6 °F /  7 °C 36.1 °F /  2.3 °C 30.1in /  1017.5hPa OSO 2.9mph /  4.7km/h 6.9mph /  11.1km/h 72% 0in /  0.0mm
05:39 44.8 °F /  7.1 °C 36.3 °F /  2.4 °C 30.1in /  1017.5hPa OSO 3.5mph /  5.7km/h 7mph /  11.3km/h 72% 0in /  0.0mm
05:44 44.8 °F /  7.1 °C 36.3 °F /  2.4 °C 30.1in /  1017.5hPa OSO 4mph /  6.5km/h 6mph /  9.7km/h 72% 0in /  0.0mm
05:49 44.8 °F /  7.1 °C 36.3 °F /  2.4 °C 30.1in /  1017.6hPa OSO 3.4mph /  5.5km/h 5.8mph /  9.3km/h 72% 0in /  0.0mm
05:54 44.6 °F /  7 °C 36.3 °F /  2.4 °C 30.1in /  1017.6hPa OSO 2.9mph /  4.7km/h 6mph /  9.7km/h 72.3% 0in /  0.0mm
05:59 44.4 °F /  6.9 °C 36.3 °F /  2.4 °C 30.1in /  1017.6hPa OSO 3mph /  4.9km/h 6mph /  9.7km/h 73% 0in /  0.0mm
06:04 44.4 °F /  6.9 °C 36.3 °F /  2.4 °C 30.1in /  1017.6hPa OSO 3.1mph /  5km/h 6mph /  9.7km/h 73% 0in /  0.0mm
06:09 44.4 °F /  6.9 °C 36.3 °F /  2.4 °C 30.1in /  1017.6hPa OSO 3.1mph /  5km/h 5.2mph /  8.4km/h 73% 0in /  0.0mm
06:14 44.4 °F /  6.9 °C 36.3 °F /  2.4 °C 30.1in /  1017.6hPa OSO 3.1mph /  5km/h 5mph /  8km/h 73% 0in /  0.0mm
06:19 44.4 °F /  6.9 °C 36.3 °F /  2.4 °C 30.1in /  1017.6hPa SO 3mph /  4.8km/h 5mph /  8km/h 72.9% 0in /  0.0mm
06:24 44.2 °F /  6.8 °C 36 °F /  2.2 °C 30.1in /  1017.5hPa Este 2.9mph /  4.6km/h 5mph /  8km/h 72.3% 0in /  0.0mm
06:29 43.7 °F /  6.5 °C 35.6 °F /  2 °C 30.1in /  1017.5hPa SSE 2.9mph /  4.7km/h 5.8mph /  9.3km/h 73.3% 0in /  0.0mm
06:34 43.2 °F /  6.2 °C 35.6 °F /  2 °C 30.1in /  1017.5hPa Sur 2.9mph /  4.6km/h 6mph /  9.7km/h 74.6% 0in /  0.0mm
06:39 42.8 °F /  6 °C 35.6 °F /  2 °C 30.1in /  1017.5hPa Sur 2.9mph /  4.7km/h 5mph /  8km/h 75.7% 0in /  0.0mm
06:44 42.6 °F /  5.9 °C 35.6 °F /  2 °C 30.1in /  1017.5hPa Sur 2.9mph /  4.7km/h 5mph /  8km/h 76% 0in /  0.0mm
06:49 42.4 °F /  5.8 °C 35.6 °F /  2 °C 30.1in /  1017.7hPa Sur 2.3mph /  3.7km/h 4mph /  6.4km/h 76.4% 0in /  0.0mm
06:54 42.6 °F /  5.9 °C 35.8 °F /  2.1 °C 30.1in /  1017.7hPa SO 1.8mph /  2.9km/h 5.2mph /  8.4km/h 77% 0in /  0.0mm
06:59 42.8 °F /  6 °C 36 °F /  2.2 °C 30.1in /  1017.7hPa Oeste 2.5mph /  4km/h 5mph /  8km/h 76.5% 0in /  0.0mm
07:04 43 °F /  6.1 °C 36 °F /  2.2 °C 30.1in /  1017.8hPa Oeste 2.9mph /  4.6km/h 5.2mph /  8.4km/h 76% 0in /  0.0mm
07:09 43 °F /  6.1 °C 36 °F /  2.2 °C 30.1in /  1017.8hPa Oeste 2.9mph /  4.7km/h 5.9mph /  9.5km/h 76% 0in /  0.0mm
07:14 43.2 °F /  6.2 °C 36.1 °F /  2.3 °C 30.1in /  1017.8hPa SO 2.9mph /  4.7km/h 6mph /  9.7km/h 76% 0in /  0.0mm
07:19 43.2 °F /  6.2 °C 36.1 °F /  2.3 °C 30.1in /  1017.9hPa SO 2.9mph /  4.6km/h 5mph /  8km/h 76% 0in /  0.0mm
07:24 43.3 °F /  6.3 °C 36.3 °F /  2.4 °C 30.1in /  1017.9hPa SO 2.9mph /  4.7km/h 5mph /  8km/h 76% 0in /  0.0mm
07:29 43.5 °F /  6.4 °C 36.3 °F /  2.4 °C 30.1in /  1017.9hPa SO 2.6mph /  4.2km/h 5mph /  8km/h 75.5% 0in /  0.0mm
07:34 43.5 °F /  6.4 °C 36.1 °F /  2.3 °C 30.1in /  1018.2hPa SO 2.4mph /  3.9km/h 4mph /  6.4km/h 75.2% 0in /  0.0mm
07:39 43.5 °F /  6.4 °C 36.1 °F /  2.3 °C 30.1in /  1018.2hPa SO 2.2mph /  3.5km/h 3mph /  4.8km/h 75% 0in /  0.0mm
07:44 43.3 °F /  6.3 °C 36 °F /  2.2 °C 30.1in /  1018.2hPa SO 2mph /  3.2km/h 5.8mph /  9.3km/h 75% 0in /  0.0mm
07:49 43.3 °F /  6.3 °C 36 °F /  2.2 °C 30.1in /  1018.3hPa OSO 1.9mph /  3km/h 6mph /  9.7km/h 75% 0in /  0.0mm
07:54 43.2 °F /  6.2 °C 35.8 °F /  2.1 °C 30.1in /  1018.3hPa OSO 1.8mph /  2.9km/h 5mph /  8km/h 75% 0in /  0.0mm
07:59 43.2 °F /  6.2 °C 35.8 °F /  2.1 °C 30.1in /  1018.3hPa OSO 2.2mph /  3.5km/h 5mph /  8km/h 75% 0in /  0.0mm
08:04 43.2 °F /  6.2 °C 35.8 °F /  2.1 °C 30.1in /  1018.3hPa OSO 2.4mph /  3.9km/h 5mph /  8km/h 75% 0in /  0.0mm
08:09 43.2 °F /  6.2 °C 35.8 °F /  2.1 °C 30.1in /  1018.3hPa OSO 2.4mph /  3.9km/h 4.6mph /  7.4km/h 75% 0in /  0.0mm
08:14 42.8 °F /  6 °C 35.4 °F /  1.9 °C 30.1in /  1018.3hPa ESE 2.4mph /  3.9km/h 5mph /  8km/h 75% 0in /  0.0mm
08:19 42.3 °F /  5.7 °C 35.1 °F /  1.7 °C 30.1in /  1018.5hPa ESE 2.4mph /  3.9km/h 4.6mph /  7.4km/h 75.6% 0in /  0.0mm
08:24 41.7 °F /  5.4 °C 35.1 °F /  1.7 °C 30.1in /  1018.5hPa ESE 2.4mph /  3.9km/h 5mph /  8km/h 76.8% 0in /  0.0mm
08:29 41.5 °F /  5.3 °C 35.1 °F /  1.7 °C 30.1in /  1018.5hPa ESE 2.7mph /  4.3km/h 5.2mph /  8.4km/h 77.7% 0in /  0.0mm
08:34 41.2 °F /  5.1 °C 34.9 °F /  1.6 °C 30.1in /  1018.5hPa SSE 2.9mph /  4.6km/h 5mph /  8km/h 78.2% 0in /  0.0mm
08:39 41.2 °F /  5.1 °C 35.2 °F /  1.8 °C 30.1in /  1018.5hPa Sur 2.9mph /  4.7km/h 5mph /  8km/h 79% 0in /  0.0mm
08:44 41.2 °F /  5.1 °C 35.2 °F /  1.8 °C 30.1in /  1018.5hPa Sur 2.9mph /  4.7km/h 5mph /  8km/h 79.4% 0in /  0.0mm
08:49 41.4 °F /  5.2 °C 35.6 °F /  2 °C 30.1in /  1018.5hPa Sur 2.9mph /  4.6km/h 5mph /  8km/h 79.5% 0in /  0.0mm
08:54 41.5 °F /  5.3 °C 35.4 °F /  1.9 °C 30.1in /  1018.5hPa Sur 2.9mph /  4.7km/h 5mph /  8km/h 79% 0in /  0.0mm
08:59 41.7 °F /  5.4 °C 35.4 °F /  1.9 °C 30.1in /  1018.5hPa Sur 2.6mph /  4.2km/h 4mph /  6.4km/h 78% 0in /  0.0mm
09:04 41.7 °F /  5.4 °C 35.4 °F /  1.9 °C 30.1in /  1018.7hPa Sur 2.4mph /  3.9km/h 3.6mph /  5.8km/h 78% 0in /  0.0mm
09:09 41.9 °F /  5.5 °C 35.6 °F /  2 °C 30.1in /  1018.7hPa Sur 2.2mph /  3.5km/h 4mph /  6.4km/h 78% 0in /  0.0mm
09:14 42.3 °F /  5.7 °C 35.8 °F /  2.1 °C 30.1in /  1018.7hPa Sur 2mph /  3.2km/h 4.6mph /  7.4km/h 78% 0in /  0.0mm
09:19 42.3 °F /  5.7 °C 36 °F /  2.2 °C 30.1in /  1018.7hPa Sur 2mph /  3.2km/h 5mph /  8km/h 78% 0in /  0.0mm
09:24 42.8 °F /  6 °C 36.1 °F /  2.3 °C 30.1in /  1018.7hPa Sur 2mph /  3.2km/h 3.5mph /  5.6km/h 77.6% 0in /  0.0mm
09:29 43.3 °F /  6.3 °C 36.1 °F /  2.3 °C 30.1in /  1018.7hPa SSE 1.9mph /  3km/h 3.6mph /  5.8km/h 75.9% 0in /  0.0mm
09:34 43.7 °F /  6.5 °C 36.1 °F /  2.3 °C 30.1in /  1018.7hPa SSE 1.8mph /  2.9km/h 4mph /  6.4km/h 74.8% 0in /  0.0mm
09:39 43.9 °F /  6.6 °C 36.1 °F /  2.3 °C 30.1in /  1018.6hPa SE 2.4mph /  3.9km/h 5.8mph /  9.3km/h 74% 0in /  0.0mm
09:44 43.9 °F /  6.6 °C 36.1 °F /  2.3 °C 30.1in /  1018.6hPa SE 2.9mph /  4.6km/h 6mph /  9.7km/h 74% 0in /  0.0mm
09:49 44.1 °F /  6.7 °C 36.3 °F /  2.4 °C 30.1in /  1018.8hPa SE 2.9mph /  4.7km/h 5mph /  8km/h 74.5% 0in /  0.0mm
09:54 44.4 °F /  6.9 °C 36.9 °F /  2.7 °C 30.1in /  1018.8hPa SE 2.9mph /  4.7km/h 3mph /  4.8km/h 75% 0in /  0.0mm
09:59 45.1 °F /  7.3 °C 37 °F /  2.8 °C 30.1in /  1018.8hPa SE 1.1mph /  1.7km/h 2.3mph /  3.7km/h 73.1% 0in /  0.0mm
10:04 45.7 °F /  7.6 °C 37.2 °F /  2.9 °C 30.1in /  1018.8hPa Calm   3.5mph /  5.6km/h 72% 0in /  0.0mm
10:09 46 °F /  7.8 °C 37.2 °F /  2.9 °C 30.1in /  1018.7hPa Calm   3mph /  4.8km/h 71.3% 0in /  0.0mm
10:14 46.8 °F /  8.2 °C 37.2 °F /  2.9 °C 30.1in /  1018.7hPa Calm   3.5mph /  5.6km/h 69.7% 0in /  0.0mm
10:19 47.1 °F /  8.4 °C 37.2 °F /  2.9 °C 30.1in /  1018.7hPa SE 1.1mph /  1.8km/h 3.5mph /  5.6km/h 68.5% 0in /  0.0mm
10:24 47.7 °F /  8.7 °C 37.4 °F /  3 °C 30.1in /  1018.7hPa SSE 2mph /  3.2km/h 4.7mph /  7.6km/h 67.5% 0in /  0.0mm
10:29 47.8 °F /  8.8 °C 36.9 °F /  2.7 °C 30.1in /  1018.7hPa SO 2mph /  3.2km/h 5.2mph /  8.4km/h 65.6% 0in /  0.0mm
10:34 47.8 °F /  8.8 °C 36.1 °F /  2.3 °C 30.1in /  1018.8hPa OSO 2mph /  3.2km/h 6.2mph /  10km/h 63.7% 0in /  0.0mm
10:39 47.8 °F /  8.8 °C 35.8 °F /  2.1 °C 30.1in /  1018.8hPa OSO 2.9mph /  4.6km/h 6mph /  9.7km/h 63% 0in /  0.0mm
10:44 47.8 °F /  8.8 °C 35.6 °F /  2 °C 30.1in /  1018.8hPa OSO 3.6mph /  5.8km/h 8.1mph /  13km/h 62.4% 0in /  0.0mm
10:49 48 °F /  8.9 °C 35.6 °F /  2 °C 30.1in /  1019.0hPa Oeste 3.6mph /  5.8km/h 8mph /  12.9km/h 62% 0in /  0.0mm
10:54 48.2 °F /  9 °C 36 °F /  2.2 °C 30.1in /  1019.0hPa OSO 3.6mph /  5.8km/h 7mph /  11.3km/h 62.2% 0in /  0.0mm
10:59 48.6 °F /  9.2 °C 36 °F /  2.2 °C 30.1in /  1019.0hPa Oeste 3.3mph /  5.3km/h 6mph /  9.7km/h 61.5% 0in /  0.0mm
11:04 48.7 °F /  9.3 °C 35.8 °F /  2.1 °C 30.1in /  1019.1hPa OSO 3.1mph /  5km/h 5mph /  8km/h 60.7% 0in /  0.0mm
11:09 48.9 °F /  9.4 °C 36.1 °F /  2.3 °C 30.1in /  1019.1hPa OSO 2.7mph /  4.4km/h 5mph /  8km/h 60.8% 0in /  0.0mm
11:14 49.5 °F /  9.7 °C 36.1 °F /  2.3 °C 30.1in /  1019.1hPa SSO 2.4mph /  3.9km/h 5.2mph /  8.4km/h 59.9% 0in /  0.0mm
11:19 50.4 °F /  10.2 °C 36 °F /  2.2 °C 30.1in /  1019.1hPa SE 2.4mph /  3.9km/h 5.2mph /  8.4km/h 57.8% 0in /  0.0mm
11:24 50.9 °F /  10.5 °C 36 °F /  2.2 °C 30.1in /  1019.0hPa SE 2.4mph /  3.9km/h 5.9mph /  9.5km/h 56.8% 0in /  0.0mm
11:29 51.3 °F /  10.7 °C 36.1 °F /  2.3 °C 30.1in /  1019.0hPa SSE 2.8mph /  4.5km/h 6mph /  9.7km/h 56% 0in /  0.0mm
11:34 51.4 °F /  10.8 °C 36 °F /  2.2 °C 30.1in /  1019.0hPa SSE 3.1mph /  5km/h 7.4mph /  11.9km/h 55.5% 0in /  0.0mm
11:39 51.6 °F /  10.9 °C 36 °F /  2.2 °C 30.1in /  1018.8hPa SSO 3.4mph /  5.4km/h 7mph /  11.3km/h 54.9% 0in /  0.0mm
11:44 51.4 °F /  10.8 °C 35.8 °F /  2.1 °C 30.1in /  1018.8hPa SSO 3.6mph /  5.8km/h 7mph /  11.3km/h 54.8% 0in /  0.0mm
11:49 51.6 °F /  10.9 °C 35.6 °F /  2 °C 30.1in /  1018.8hPa SSO 3.8mph /  6.1km/h 7mph /  11.3km/h 54.4% 0in /  0.0mm
11:54 51.8 °F /  11 °C 35.6 °F /  2 °C 30.1in /  1018.8hPa Sur 4mph /  6.5km/h 5.9mph /  9.5km/h 54% 0in /  0.0mm
11:59 52.2 °F /  11.2 °C 35.6 °F /  2 °C 30.1in /  1018.8hPa Sur 3mph /  4.8km/h 6.2mph /  10km/h 53% 0in /  0.0mm
12:04 52.3 °F /  11.3 °C 35.4 °F /  1.9 °C 30.1in /  1018.8hPa Sur 2.4mph /  3.9km/h 6mph /  9.7km/h 52.4% 0in /  0.0mm
12:09 52.7 °F /  11.5 °C 35.2 °F /  1.8 °C 30.1in /  1018.7hPa Sur 2.8mph /  4.5km/h 6.9mph /  11.1km/h 51.4% 0in /  0.0mm
12:14 53.1 °F /  11.7 °C 35.2 °F /  1.8 °C 30.1in /  1018.7hPa SSO 3.1mph /  5km/h 7mph /  11.3km/h 50.9% 0in /  0.0mm
12:19 53.1 °F /  11.7 °C 35.1 °F /  1.7 °C 30.1in /  1018.7hPa SO 3.4mph /  5.4km/h 7.4mph /  11.9km/h 50.1% 0in /  0.0mm
12:24 53.2 °F /  11.8 °C 35.1 °F /  1.7 °C 30.1in /  1018.5hPa SSO 3.6mph /  5.8km/h 7mph /  11.3km/h 50% 0in /  0.0mm
12:29 53.2 °F /  11.8 °C 34.9 °F /  1.6 °C 30.1in /  1018.5hPa SO 3.6mph /  5.8km/h 6mph /  9.7km/h 49.6% 0in /  0.0mm
12:34 53.4 °F /  11.9 °C 34.9 °F /  1.6 °C 30.1in /  1018.5hPa OSO 3.6mph /  5.8km/h 7.6mph /  12.2km/h 49.5% 0in /  0.0mm
12:39 53.4 °F /  11.9 °C 34.7 °F /  1.5 °C 30.1in /  1018.3hPa OSO 3.8mph /  6.1km/h 8.1mph /  13km/h 49.1% 0in /  0.0mm
12:44 53.4 °F /  11.9 °C 34.7 °F /  1.5 °C 30.1in /  1018.3hPa OSO 4mph /  6.5km/h 8.1mph /  13km/h 49% 0in /  0.0mm
12:49 53.4 °F /  11.9 °C 34.7 °F /  1.5 °C 30.1in /  1018.3hPa OSO 4.3mph /  6.9km/h 8.1mph /  13km/h 49% 0in /  0.0mm
12:54 54 °F /  12.2 °C 34.7 °F /  1.5 °C 30.1in /  1018.1hPa SO 4.7mph /  7.6km/h 7mph /  11.3km/h 48.2% 0in /  0.0mm
12:59 54.3 °F /  12.4 °C 34.9 °F /  1.6 °C 30.1in /  1018.1hPa SO 4mph /  6.5km/h 7mph /  11.3km/h 47.8% 0in /  0.0mm
13:04 54.5 °F /  12.5 °C 34.9 °F /  1.6 °C 30.1in /  1018.1hPa OSO 3.6mph /  5.8km/h 9.7mph /  15.6km/h 47.4% 0in /  0.0mm
13:09 54.7 °F /  12.6 °C 34.9 °F /  1.6 °C 30.1in /  1017.9hPa Oeste 3.6mph /  5.8km/h 10mph /  16.1km/h 47% 0in /  0.0mm
13:14 54.9 °F /  12.7 °C 35.1 °F /  1.7 °C 30.1in /  1017.9hPa Oeste 3.6mph /  5.8km/h 6.9mph /  11.1km/h 47% 0in /  0.0mm
13:19 54.9 °F /  12.7 °C 34.9 °F /  1.6 °C 30.1in /  1017.9hPa OSO 3.4mph /  5.4km/h 9.2mph /  14.8km/h 46.8% 0in /  0.0mm
13:24 55 °F /  12.8 °C 34.9 °F /  1.6 °C 30.1in /  1017.6hPa SO 3.1mph /  5km/h 9mph /  14.5km/h 46.5% 0in /  0.0mm
13:29 55.2 °F /  12.9 °C 34.9 °F /  1.6 °C 30.1in /  1017.6hPa OSO 3.6mph /  5.8km/h 7mph /  11.3km/h 46% 0in /  0.0mm
13:34 55.6 °F /  13.1 °C 34.9 °F /  1.6 °C 30.1in /  1017.6hPa SSO 4mph /  6.5km/h 6.4mph /  10.3km/h 45.5% 0in /  0.0mm
13:39 55.6 °F /  13.1 °C 34.7 °F /  1.5 °C 30in /  1017.3hPa SO 3.8mph /  6.1km/h 8.1mph /  13km/h 45.1% 0in /  0.0mm
13:44 55.4 °F /  13 °C 34.5 °F /  1.4 °C 30in /  1017.3hPa SO 3.6mph /  5.8km/h 8mph /  12.9km/h 45% 0in /  0.0mm
13:49 55.4 °F /  13 °C 34.7 °F /  1.5 °C 30in /  1017.3hPa OSO 3.9mph /  6.2km/h 5.2mph /  8.4km/h 45.6% 0in /  0.0mm
13:54 55.8 °F /  13.2 °C 34.9 °F /  1.6 °C 30in /  1017.1hPa OSO 4mph /  6.5km/h 5mph /  8km/h 45.3% 0in /  0.0mm
13:59 55.9 °F /  13.3 °C 34.7 °F /  1.5 °C 30in /  1017.1hPa NNO 3.4mph /  5.5km/h 6.9mph /  11.1km/h 44.4% 0in /  0.0mm
14:04 56.1 °F /  13.4 °C 34.7 °F /  1.5 °C 30in /  1017.1hPa NNO 3.1mph /  5km/h 7mph /  11.3km/h 44.3% 0in /  0.0mm
14:09 56.1 °F /  13.4 °C 34.5 °F /  1.4 °C 30in /  1016.9hPa ONO 2.7mph /  4.4km/h 6mph /  9.7km/h 44% 0in /  0.0mm
14:14 56.3 °F /  13.5 °C 34.7 °F /  1.5 °C 30in /  1016.9hPa OSO 2.4mph /  3.9km/h 4.7mph /  7.6km/h 44.1% 0in /  0.0mm
14:19 56.5 °F /  13.6 °C 34.7 °F /  1.5 °C 30in /  1016.9hPa SE 2.1mph /  3.3km/h 5mph /  8km/h 43.6% 0in /  0.0mm
14:24 56.7 °F /  13.7 °C 34.2 °F /  1.2 °C 30in /  1016.7hPa Sur 1.8mph /  2.9km/h 5.9mph /  9.5km/h 42.7% 0in /  0.0mm
14:29 56.8 °F /  13.8 °C 34 °F /  1.1 °C 30in /  1016.7hPa SO 1.9mph /  3.1km/h 6mph /  9.7km/h 42% 0in /  0.0mm
14:34 56.8 °F /  13.8 °C 34 °F /  1.1 °C 30in /  1016.7hPa OSO 2mph /  3.2km/h 6.2mph /  10km/h 42% 0in /  0.0mm
14:39 57 °F /  13.9 °C 33.6 °F /  0.9 °C 30in /  1016.6hPa ONO 2.6mph /  4.2km/h 6.9mph /  11.1km/h 41.3% 0in /  0.0mm
14:44 57 °F /  13.9 °C 34 °F /  1.1 °C 30in /  1016.6hPa NO 3.1mph /  5km/h 7mph /  11.3km/h 41.7% 0in /  0.0mm
14:49 57.2 °F /  14 °C 34.3 °F /  1.3 °C 30in /  1016.6hPa ONO 3mph /  4.8km/h 7mph /  11.3km/h 41.9% 0in /  0.0mm
14:54 57.7 °F /  14.3 °C 34.3 °F /  1.3 °C 30in /  1016.3hPa SSO 2.9mph /  4.7km/h 5.9mph /  9.5km/h 41.2% 0in /  0.0mm
14:59 57.9 °F /  14.4 °C 33.8 °F /  1 °C 30in /  1016.3hPa SSE 3mph /  4.8km/h 7mph /  11.3km/h 40.3% 0in /  0.0mm
15:04 57.9 °F /  14.4 °C 33.8 °F /  1 °C 30in /  1016.3hPa SE 3.1mph /  5km/h 7mph /  11.3km/h 40% 0in /  0.0mm
15:09 58.5 °F /  14.7 °C 34.2 °F /  1.2 °C 30in /  1016.1hPa SSO 3mph /  4.8km/h 8.1mph /  13km/h 40% 0in /  0.0mm
15:14 58.5 °F /  14.7 °C 34.2 °F /  1.2 °C 30in /  1016.1hPa SSO 2.9mph /  4.6km/h 8.1mph /  13km/h 40% 0in /  0.0mm
15:19 58.6 °F /  14.8 °C 34.3 °F /  1.3 °C 30in /  1016.1hPa OSO 3.2mph /  5.2km/h 6mph /  9.7km/h 40% 0in /  0.0mm
15:24 58.6 °F /  14.8 °C 34 °F /  1.1 °C 30in /  1016.0hPa Oeste 3.6mph /  5.8km/h 5.2mph /  8.4km/h 39.4% 0in /  0.0mm
15:29 58.6 °F /  14.8 °C 33.8 °F /  1 °C 30in /  1016.0hPa SSO 2.9mph /  4.7km/h 6.9mph /  11.1km/h 39.1% 0in /  0.0mm
15:34 58.5 °F /  14.7 °C 34 °F /  1.1 °C 30in /  1016.0hPa SSO 2.4mph /  3.9km/h 8.7mph /  14km/h 39.7% 0in /  0.0mm
15:39 58.5 °F /  14.7 °C 34.2 °F /  1.2 °C 30in /  1015.8hPa Sur 3.6mph /  5.8km/h 9mph /  14.5km/h 40% 0in /  0.0mm
15:44 58.5 °F /  14.7 °C 34.2 °F /  1.2 °C 30in /  1015.8hPa SE 4.7mph /  7.6km/h 7mph /  11.3km/h 40% 0in /  0.0mm
15:49 58.3 °F /  14.6 °C 34 °F /  1.1 °C 30in /  1015.8hPa Sur 4.5mph /  7.2km/h 6.2mph /  10km/h 40% 0in /  0.0mm
15:54 58.5 °F /  14.7 °C 34.5 °F /  1.4 °C 30in /  1015.7hPa SSO 4.3mph /  6.9km/h 6mph /  9.7km/h 40.7% 0in /  0.0mm
15:59 58.6 °F /  14.8 °C 34.3 °F /  1.3 °C 30in /  1015.7hPa SSO 3.5mph /  5.7km/h 5mph /  8km/h 40% 0in /  0.0mm
16:04 58.8 °F /  14.9 °C 34.5 °F /  1.4 °C 30in /  1015.7hPa SSO 3.1mph /  5km/h 5mph /  8km/h 40% 0in /  0.0mm
16:09 59.2 °F /  15.1 °C 34.9 °F /  1.6 °C 30in /  1015.6hPa SSO 2.7mph /  4.4km/h 5.9mph /  9.5km/h 40% 0in /  0.0mm
16:14 59.4 °F /  15.2 °C 35.1 °F /  1.7 °C 30in /  1015.6hPa OSO 2.4mph /  3.9km/h 6mph /  9.7km/h 40% 0in /  0.0mm
16:19 59.5 °F /  15.3 °C 35.2 °F /  1.8 °C 30in /  1015.6hPa OSO 2.4mph /  3.9km/h 5mph /  8km/h 40% 0in /  0.0mm
16:24 59.5 °F /  15.3 °C 35.2 °F /  1.8 °C 30in /  1015.6hPa OSO 2.4mph /  3.9km/h 4mph /  6.4km/h 40% 0in /  0.0mm
16:29 59.5 °F /  15.3 °C 35.2 °F /  1.8 °C 30in /  1015.6hPa OSO 1.1mph /  1.8km/h 3.5mph /  5.6km/h 40% 0in /  0.0mm
16:34 59.7 °F /  15.4 °C 35.2 °F /  1.8 °C 30in /  1015.6hPa Calm   4.6mph /  7.4km/h 40% 0in /  0.0mm
16:39 59.5 °F /  15.3 °C 35.1 °F /  1.7 °C 30in /  1015.5hPa Oeste 1.1mph /  1.7km/h 5mph /  8km/h 40% 0in /  0.0mm
16:44 59.2 °F /  15.1 °C 34.9 °F /  1.6 °C 30in /  1015.5hPa ONO 2mph /  3.2km/h 5mph /  8km/h 40% 0in /  0.0mm
16:49 59.2 °F /  15.1 °C 35.4 °F /  1.9 °C 30in /  1015.5hPa ONO 2mph /  3.2km/h 4mph /  6.4km/h 40.9% 0in /  0.0mm
16:54 59.2 °F /  15.1 °C 35.6 °F /  2 °C 30in /  1015.5hPa ONO 2mph /  3.2km/h 3.5mph /  5.6km/h 41% 0in /  0.0mm
16:59 59.2 °F /  15.1 °C 35.4 °F /  1.9 °C 30in /  1015.5hPa ONO 1.9mph /  3km/h 4.6mph /  7.4km/h 41% 0in /  0.0mm
17:04 59.2 °F /  15.1 °C 35.4 °F /  1.9 °C 30in /  1015.5hPa ONO 1.8mph /  2.9km/h 5mph /  8km/h 41% 0in /  0.0mm
17:09 58.8 °F /  14.9 °C 35.4 °F /  1.9 °C 30in /  1015.4hPa ONO 1.8mph /  2.9km/h 5mph /  8km/h 41.4% 0in /  0.0mm
17:14 58.8 °F /  14.9 °C 35.2 °F /  1.8 °C 30in /  1015.4hPa ONO 1.8mph /  2.9km/h 5mph /  8km/h 41% 0in /  0.0mm
17:19 58.6 °F /  14.8 °C 35.1 °F /  1.7 °C 30in /  1015.4hPa ONO 1.8mph /  2.9km/h 3mph /  4.8km/h 41% 0in /  0.0mm
17:24 58.6 °F /  14.8 °C 35.4 °F /  1.9 °C 30in /  1015.4hPa ONO 1.8mph /  2.9km/h 4mph /  6.4km/h 41.6% 0in /  0.0mm
17:29 58.6 °F /  14.8 °C 35.6 °F /  2 °C 30in /  1015.4hPa OSO 1.8mph /  2.9km/h 5mph /  8km/h 42% 0in /  0.0mm
17:34 58.5 °F /  14.7 °C 35.6 °F /  2 °C 30in /  1015.4hPa SSE 1.8mph /  2.9km/h 5.8mph /  9.3km/h 42.4% 0in /  0.0mm
17:39 58.5 °F /  14.7 °C 36 °F /  2.2 °C 30in /  1015.4hPa SE 2.5mph /  4km/h 6mph /  9.7km/h 43% 0in /  0.0mm
17:44 58.3 °F /  14.6 °C 36.3 °F /  2.4 °C 30in /  1015.4hPa SSE 3.1mph /  5km/h 6mph /  9.7km/h 43.8% 0in /  0.0mm
17:49 57.9 °F /  14.4 °C 36.3 °F /  2.4 °C 30in /  1015.4hPa SSE 3.4mph /  5.4km/h 6mph /  9.7km/h 44.2% 0in /  0.0mm
17:54 57.7 °F /  14.3 °C 36.5 °F /  2.5 °C 30in /  1015.4hPa SSE 3.6mph /  5.8km/h 6mph /  9.7km/h 45% 0in /  0.0mm
17:59 57.6 °F /  14.2 °C 36.5 °F /  2.5 °C 30in /  1015.4hPa SSE 3.3mph /  5.3km/h 6mph /  9.7km/h 45.2% 0in /  0.0mm
18:04 57.4 °F /  14.1 °C 36.9 °F /  2.7 °C 30in /  1015.4hPa SE 3.1mph /  5km/h 6mph /  9.7km/h 46% 0in /  0.0mm
18:09 57.4 °F /  14.1 °C 36.9 °F /  2.7 °C 30in /  1015.4hPa SE 3.4mph /  5.4km/h 6.2mph /  10km/h 46.3% 0in /  0.0mm
18:14 57.2 °F /  14 °C 37.2 °F /  2.9 °C 30in /  1015.4hPa SSE 3.6mph /  5.8km/h 6.9mph /  11.1km/h 47.3% 0in /  0.0mm
18:19 57 °F /  13.9 °C 37.9 °F /  3.3 °C 30in /  1015.4hPa Sur 3.8mph /  6.1km/h 7mph /  11.3km/h 48.8% 0in /  0.0mm
18:24 56.8 °F /  13.8 °C 38.5 °F /  3.6 °C 30in /  1015.4hPa SSE 4mph /  6.5km/h 7mph /  11.3km/h 50% 0in /  0.0mm
18:29 56.8 °F /  13.8 °C 39.2 °F /  4 °C 30in /  1015.4hPa SSE 4mph /  6.5km/h 6mph /  9.7km/h 51.6% 0in /  0.0mm
18:34 56.7 °F /  13.7 °C 39.6 °F /  4.2 °C 30in /  1015.5hPa SSE 4mph /  6.5km/h 5.2mph /  8.4km/h 52.9% 0in /  0.0mm
18:39 56.7 °F /  13.7 °C 40.6 °F /  4.8 °C 30in /  1015.5hPa SSE 3.5mph /  5.6km/h 5.2mph /  8.4km/h 55.1% 0in /  0.0mm
18:44 56.5 °F /  13.6 °C 41.4 °F /  5.2 °C 30in /  1015.5hPa SSE 3.1mph /  5km/h 6.4mph /  10.3km/h 56.8% 0in /  0.0mm
18:49 56.5 °F /  13.6 °C 41.9 °F /  5.5 °C 30in /  1015.5hPa SSE 3.4mph /  5.4km/h 7mph /  11.3km/h 58.4% 0in /  0.0mm
18:54 56.3 °F /  13.5 °C 42.4 °F /  5.8 °C 30in /  1015.5hPa SSE 3.6mph /  5.8km/h 6.9mph /  11.1km/h 59.8% 0in /  0.0mm
18:59 56.1 °F /  13.4 °C 42.6 °F /  5.9 °C 30in /  1015.5hPa Sur 3.9mph /  6.2km/h 7mph /  11.3km/h 60.5% 0in /  0.0mm
19:04 56.1 °F /  13.4 °C 42.8 °F /  6 °C 30in /  1015.6hPa SSO 4mph /  6.5km/h 6.9mph /  11.1km/h 61% 0in /  0.0mm
19:09 55.9 °F /  13.3 °C 43 °F /  6.1 °C 30in /  1015.6hPa SSO 4mph /  6.5km/h 7mph /  11.3km/h 61.5% 0in /  0.0mm
19:14 55.9 °F /  13.3 °C 43.2 °F /  6.2 °C 30in /  1015.6hPa SO 4mph /  6.5km/h 7.6mph /  12.2km/h 62% 0in /  0.0mm
19:19 55.9 °F /  13.3 °C 43.2 °F /  6.2 °C 30in /  1015.7hPa SO 4mph /  6.5km/h 9.2mph /  14.8km/h 62.2% 0in /  0.0mm
19:24 55.8 °F /  13.2 °C 43 °F /  6.1 °C 30in /  1015.7hPa SO 4mph /  6.5km/h 9.2mph /  14.8km/h 62.2% 0in /  0.0mm
19:29 55.8 °F /  13.2 °C 42.8 °F /  6 °C 30in /  1015.7hPa SO 4.4mph /  7.1km/h 8.1mph /  13km/h 62% 0in /  0.0mm
19:34 55.6 °F /  13.1 °C 42.8 °F /  6 °C 30in /  1015.7hPa SO 4.7mph /  7.6km/h 8.1mph /  13km/h 62% 0in /  0.0mm
19:39 55.4 °F /  13 °C 42.6 °F /  5.9 °C 30in /  1015.7hPa OSO 4.5mph /  7.2km/h 8mph /  12.9km/h 62% 0in /  0.0mm
19:44 55.2 °F /  12.9 °C 42.6 °F /  5.9 °C 30in /  1015.7hPa Oeste 4.3mph /  6.9km/h 7mph /  11.3km/h 62.3% 0in /  0.0mm
19:49 55.2 °F /  12.9 °C 42.8 °F /  6 °C 30in /  1015.9hPa Oeste 3.7mph /  5.9km/h 6.2mph /  10km/h 63% 0in /  0.0mm
19:54 55 °F /  12.8 °C 43 °F /  6.1 °C 30in /  1015.9hPa ONO 3.1mph /  5km/h 6mph /  9.7km/h 63.7% 0in /  0.0mm
19:59 54.9 °F /  12.7 °C 43 °F /  6.1 °C 30in /  1015.9hPa Oeste 3.1mph /  5km/h 6mph /  9.7km/h 64% 0in /  0.0mm
20:04 54.9 °F /  12.7 °C 43 °F /  6.1 °C 30in /  1015.9hPa Oeste 3.1mph /  5km/h 6mph /  9.7km/h 64.4% 0in /  0.0mm
20:09 54.7 °F /  12.6 °C 43.2 °F /  6.2 °C 30in /  1015.9hPa OSO 3mph /  4.8km/h 5.9mph /  9.5km/h 65% 0in /  0.0mm
20:14 54.7 °F /  12.6 °C 43 °F /  6.1 °C 30in /  1015.9hPa OSO 2.9mph /  4.6km/h 6.2mph /  10km/h 65% 0in /  0.0mm
20:19 54.5 °F /  12.5 °C 43 °F /  6.1 °C 30in /  1016.0hPa OSO 3.3mph /  5.3km/h 6mph /  9.7km/h 65% 0in /  0.0mm
20:24 54.5 °F /  12.5 °C 43 °F /  6.1 °C 30in /  1016.0hPa OSO 3.6mph /  5.8km/h 5.2mph /  8.4km/h 65% 0in /  0.0mm
20:29 54.5 °F /  12.5 °C 43 °F /  6.1 °C 30in /  1016.0hPa OSO 3.2mph /  5.2km/h 5mph /  8km/h 65% 0in /  0.0mm
20:34 54.3 °F /  12.4 °C 43 °F /  6.1 °C 30in /  1016.1hPa Oeste 2.9mph /  4.7km/h 5.9mph /  9.5km/h 65% 0in /  0.0mm
20:39 54.3 °F /  12.4 °C 42.8 °F /  6 °C 30in /  1016.1hPa Oeste 3mph /  4.8km/h 6mph /  9.7km/h 65% 0in /  0.0mm
20:44 54.3 °F /  12.4 °C 42.8 °F /  6 °C 30in /  1016.1hPa Oeste 3.1mph /  5km/h 6mph /  9.7km/h 65% 0in /  0.0mm
20:49 54.3 °F /  12.4 °C 42.8 °F /  6 °C 30in /  1016.2hPa Oeste 2.7mph /  4.4km/h 4.6mph /  7.4km/h 65% 0in /  0.0mm
20:54 54.1 °F /  12.3 °C 42.6 °F /  5.9 °C 30in /  1016.2hPa Oeste 2.4mph /  3.9km/h 5mph /  8km/h 65% 0in /  0.0mm
20:59 54.1 °F /  12.3 °C 42.6 °F /  5.9 °C 30in /  1016.2hPa Oeste 2.1mph /  3.3km/h 3mph /  4.8km/h 65% 0in /  0.0mm
21:04 54.1 °F /  12.3 °C 42.6 °F /  5.9 °C 30in /  1016.2hPa Oeste 1.8mph /  2.9km/h 2mph /  3.2km/h 65% 0in /  0.0mm
21:09 54.1 °F /  12.3 °C 42.6 °F /  5.9 °C 30in /  1016.2hPa Oeste 0.9mph /  1.4km/h 3.5mph /  5.6km/h 65% 0in /  0.0mm
21:14 54.1 °F /  12.3 °C 42.6 °F /  5.9 °C 30in /  1016.2hPa Calm   4.6mph /  7.4km/h 64.9% 0in /  0.0mm
21:19 54.1 °F /  12.3 °C 42.6 °F /  5.9 °C 30in /  1016.2hPa SE 1.3mph /  2.1km/h 6.2mph /  10km/h 65% 0in /  0.0mm
21:24 54 °F /  12.2 °C 43 °F /  6.1 °C 30in /  1016.1hPa SE 2.4mph /  3.9km/h 7.4mph /  11.9km/h 66.2% 0in /  0.0mm
21:29 53.4 °F /  11.9 °C 42.8 °F /  6 °C 30in /  1016.1hPa SE 3.5mph /  5.6km/h 8.1mph /  13km/h 67.2% 0in /  0.0mm
21:34 53.2 °F /  11.8 °C 42.8 °F /  6 °C 30in /  1016.1hPa SSE 4.3mph /  6.9km/h 8mph /  12.9km/h 68% 0in /  0.0mm
21:39 52.9 °F /  11.6 °C 43 °F /  6.1 °C 30in /  1016.1hPa Sur 4.2mph /  6.7km/h 7.4mph /  11.9km/h 68.8% 0in /  0.0mm
21:44 52.9 °F /  11.6 °C 43 °F /  6.1 °C 30in /  1016.1hPa Sur 4mph /  6.5km/h 7mph /  11.3km/h 69% 0in /  0.0mm
21:49 52.7 °F /  11.5 °C 42.8 °F /  6 °C 30in /  1016.2hPa Sur 4mph /  6.5km/h 6mph /  9.7km/h 69% 0in /  0.0mm
21:54 52.7 °F /  11.5 °C 42.8 °F /  6 °C 30in /  1016.2hPa SSO 4mph /  6.5km/h 5mph /  8km/h 69% 0in /  0.0mm
21:59 52.7 °F /  11.5 °C 42.8 °F /  6 °C 30in /  1016.2hPa SSO 2.9mph /  4.6km/h 5mph /  8km/h 69% 0in /  0.0mm
22:04 52.9 °F /  11.6 °C 43 °F /  6.1 °C 30in /  1016.3hPa SSO 2mph /  3.2km/h 3.6mph /  5.8km/h 69% 0in /  0.0mm
22:09 52.9 °F /  11.6 °C 43 °F /  6.1 °C 30in /  1016.3hPa SSO 1.7mph /  2.7km/h 5.2mph /  8.4km/h 69% 0in /  0.0mm
22:14 52.9 °F /  11.6 °C 42.8 °F /  6 °C 30in /  1016.3hPa SSO 1.4mph /  2.2km/h 5.8mph /  9.3km/h 68.4% 0in /  0.0mm
22:19 53.1 °F /  11.7 °C 42.8 °F /  6 °C 30in /  1016.4hPa SO 2.5mph /  4.1km/h 6mph /  9.7km/h 68% 0in /  0.0mm
22:24 53.1 °F /  11.7 °C 42.8 °F /  6 °C 30in /  1016.4hPa SO 3.6mph /  5.8km/h 6mph /  9.7km/h 68% 0in /  0.0mm
22:29 53.2 °F /  11.8 °C 42.6 °F /  5.9 °C 30in /  1016.4hPa SO 3.3mph /  5.3km/h 5.9mph /  9.5km/h 67.3% 0in /  0.0mm
22:34 53.2 °F /  11.8 °C 42.6 °F /  5.9 °C 30in /  1016.4hPa SO 3.1mph /  5km/h 6mph /  9.7km/h 67% 0in /  0.0mm
22:39 53.2 °F /  11.8 °C 42.6 °F /  5.9 °C 30in /  1016.4hPa SO 3.1mph /  5km/h 5mph /  8km/h 67% 0in /  0.0mm
22:44 53.2 °F /  11.8 °C 42.6 °F /  5.9 °C 30in /  1016.4hPa SO 3.1mph /  5km/h 5mph /  8km/h 67% 0in /  0.0mm
22:49 53.2 °F /  11.8 °C 42.6 °F /  5.9 °C 30in /  1016.5hPa SO 2.2mph /  3.6km/h 3mph /  4.8km/h 67% 0in /  0.0mm
22:54 53.2 °F /  11.8 °C 42.6 °F /  5.9 °C 30in /  1016.5hPa SO 1.4mph /  2.2km/h 2.4mph /  3.9km/h 67.4% 0in /  0.0mm
22:59 53.1 °F /  11.7 °C 42.6 °F /  5.9 °C 30in /  1016.5hPa SO 0.6mph /  0.9km/h 2.3mph /  3.7km/h 68% 0in /  0.0mm
23:04 52.9 °F /  11.6 °C 42.8 °F /  6 °C 30in /  1016.7hPa Calm   2mph /  3.2km/h 68.6% 0in /  0.0mm
23:09 52.5 °F /  11.4 °C 42.6 °F /  5.9 °C 30in /  1016.7hPa Calm     69% 0in /  0.0mm
23:14 52.5 °F /  11.4 °C 42.6 °F /  5.9 °C 30in /  1016.7hPa Calm   2.4mph /  3.9km/h 69% 0in /  0.0mm
23:19 52.3 °F /  11.3 °C 42.8 °F /  6 °C 30in /  1016.8hPa SO 0.7mph /  1.2km/h 4.6mph /  7.4km/h 69.9% 0in /  0.0mm
23:24 52.2 °F /  11.2 °C 42.8 °F /  6 °C 30in /  1016.8hPa SO 1.4mph /  2.2km/h 5mph /  8km/h 70% 0in /  0.0mm
23:29 52.2 °F /  11.2 °C 42.6 °F /  5.9 °C 30in /  1016.8hPa SO 1.7mph /  2.8km/h 4.6mph /  7.4km/h 70% 0in /  0.0mm
23:34 52.2 °F /  11.2 °C 42.6 °F /  5.9 °C 30in /  1016.9hPa SO 2mph /  3.2km/h 5mph /  8km/h 70% 0in /  0.0mm
23:39 52.2 °F /  11.2 °C 42.6 °F /  5.9 °C 30in /  1016.9hPa SO 2.2mph /  3.5km/h 4.7mph /  7.6km/h 70% 0in /  0.0mm
23:44 52.2 °F /  11.2 °C 42.6 °F /  5.9 °C 30in /  1016.9hPa SO 2.4mph /  3.9km/h 5mph /  8km/h 70% 0in /  0.0mm
23:49 52.2 °F /  11.2 °C 42.6 °F /  5.9 °C 30in /  1016.9hPa SO 2.2mph /  3.5km/h 4mph /  6.4km/h 70% 0in /  0.0mm
23:54 52 °F /  11.1 °C 42.4 °F /  5.8 °C 30in /  1016.9hPa SO 2mph /  3.2km/h 5mph /  8km/h 70% 0in /  0.0mm
23:59 52 °F /  11.1 °C 42.1 °F /  5.6 °C 30in /  1016.9hPa SO 2.2mph /  3.6km/h 5mph /  8km/h 68.8% 0in /  0.0mm
Murcia-Puente Tocinos, España
Compliments of Weather Underground - 2.75 mb

La estación de MeteoMurcia.com, publica sus datos en los siguientes proyectos:

Weather Underground PWS IMURCIAP2 Meteoclimatic www.awekas.at

W3Counter
Web Analytics